首页
METAR-TAF:

METAR-TAF

机场 :

布爾加斯, 保加利亚

纬度: 42-29N, 经度: 027-29E, 海拔: 16米

当前天气观测

该预报发布于14分钟前的05:00 UTC
风速4节,风向
温度 21°C
湿度 69%
气压 1009 hPa
能见度10公里或以上
1500米以下无云,无积雨云

METAR: LBBG 170500Z 35004KT CAVOK 21/15 Q1009 NOSIG

时间: 08:14 (05:14 UTC)

预报

该预报发布于6小时和14分钟前的23:00 UTC
预报有效从17日的 00点(UTC)到 17日的 24点(UTC)
风速4节,风向多变
能见度10公里或以上
1500米以下无云,无积雨云
短暂存在
从 17日的 01点(UTC)到 17日的 05点(UTC)
能見度: 5000
轻雾
成为
从 17日的 08点(UTC)到 17日的 10点(UTC)
风速10节,风向东转东南
成为
从 17日的 19点(UTC)到 17日的 20点(UTC)
风速4节,风向多变

TAF: LBBG 162300Z 1700/1724 VRB04KT CAVOK TEMPO 1701/1705 5000 BR BECMG 1708/1710 12010KT BECMG 1719/1720 VRB04KT

超过4000个机场的气象观测和天气预报(METAR&TAF报告)。

可查询的气象台以黄色和红色小点在地图上表示。

将鼠标移到小点上方,可查看气象台名称。

然后点击查看天气观测和预报。

如需切换地图:点击带黑十字的绿色按钮放大地图;点击带横线的绿色按钮缩小地图;或者点击绿色箭头查看邻近地区的地图。


METAR-TAF: